Airfield :
LOGIN :

Register | Disclaimer

   EN    FR    IT 

 










Legend :    VFR   Marginal VFR   IFR   Intensive IFR   Very Intensive IFR
Visi :
Ceiling :
>= 8 km
>= 3000ft
5 to 8 km
1000 to 3000 ft
1500m to 5 km
500 to 1000 ft
800 to 1500m
200 to 500 ft
< 800m
< 200 ft
Symbols :   Thunderstorms  Fog  Heavy snow  Heavy precipitations  Wind > 20 kt
SIGMETs :     Misc.  Thunderstorms  Icing  Turbulence  Mountain Waves  Volcanic Ashes






- Airport Elevation : 161 ft


LRTZ - Tuzla Romania

CURRENT METAR :
  • 250800Z 33016KT 9999 BKN045 OVC055 M05/M09 Q1028 BLU BLU

EXPIRED METARs :
  • 250700Z 32018KT 9999 BKN045 M05/M09 Q1028 BLU BLU
  • 250600Z 32014KT 9999 BKN080 M06/M09 Q1028 BLU BLU

TAF TAF LRTZ
Valid from the 25 at 06:00 until the 26 at 06:00 UTC


250500Z 2506/2606 33014KT 9999 BKN100
PROB30
TEMPO 2508/2514 -SN SCT030 BKN100
BECMG 2518/2520 27010KT SCT200



MET'MAP, your aeronautical weather chart ! - Copyright ORBIFLY December 2007 - Disclaimer

ORBIFLY MET'MAP TEAM :

Programming & Development : Alexandra Zaïnal
Original concept : Baudouin d'Aumeries
Technical & hardware support : Manuel Goepfert
Assistance : Marc-Olivier Méhu

Contact : metmap@orbifly.com




SOURCES & CREDITS :

   NOAA